createdAt,value
2018-04-27T00:00:10.471Z,100.0
2018-04-27T00:01:12.847Z,100.0
2018-04-27T00:02:15.691Z,100.0
2018-04-27T00:03:18.578Z,100.0
2018-04-27T00:04:20.225Z,100.0
2018-04-27T00:05:21.866Z,100.0
2018-04-27T00:06:24.609Z,100.0
2018-04-27T00:07:26.394Z,100.0
2018-04-27T00:08:28.035Z,100.0
2018-04-27T00:09:29.664Z,100.0
2018-04-27T00:10:31.303Z,100.0
2018-04-27T00:11:32.922Z,100.0
2018-04-27T00:12:34.560Z,100.0
2018-04-27T00:13:36.191Z,100.0
2018-04-27T00:14:37.810Z,100.0
2018-04-27T00:15:39.450Z,100.0
2018-04-27T00:16:41.073Z,100.0
2018-04-27T00:17:42.698Z,100.0
2018-04-27T00:18:44.325Z,100.0
2018-04-27T00:19:45.946Z,100.0
2018-04-27T00:20:47.657Z,100.0
2018-04-27T00:21:49.201Z,100.0
2018-04-27T00:22:50.839Z,100.0
2018-04-27T00:23:52.478Z,100.0
2018-04-27T00:24:54.108Z,100.0
2018-04-27T00:25:55.740Z,100.0
2018-04-27T00:26:57.357Z,100.0
2018-04-27T00:27:58.999Z,100.0
2018-04-27T00:29:00.630Z,100.0
2018-04-27T00:30:02.258Z,100.0
2018-04-27T00:31:03.889Z,100.0
2018-04-27T00:32:05.521Z,100.0
2018-04-27T00:33:07.154Z,100.0
2018-04-27T00:34:08.773Z,100.0
2018-04-27T00:35:10.395Z,100.0
2018-04-27T00:36:12.023Z,100.0
2018-04-27T00:37:13.645Z,100.0
2018-04-27T00:38:15.275Z,100.0
2018-04-27T00:39:16.906Z,100.0
2018-04-27T00:40:18.531Z,100.0
2018-04-27T00:41:20.150Z,100.0
2018-04-27T00:42:21.794Z,100.0
2018-04-27T00:43:23.420Z,100.0
2018-04-27T00:44:25.052Z,100.0
2018-04-27T00:45:26.690Z,100.0
2018-04-27T00:46:28.306Z,100.0
2018-04-27T00:47:29.935Z,100.0
2018-04-27T00:48:31.560Z,100.0
2018-04-27T00:49:33.194Z,100.0
2018-04-27T00:50:34.821Z,100.0
2018-04-27T00:51:36.453Z,100.0
2018-04-27T00:52:38.084Z,100.0
2018-04-27T00:53:39.706Z,100.0
2018-04-27T00:54:41.336Z,100.0
2018-04-27T00:55:42.961Z,100.0
2018-04-27T00:56:44.597Z,100.0
2018-04-27T00:57:46.221Z,100.0
2018-04-27T00:58:47.853Z,100.0
2018-04-27T00:59:49.485Z,100.0
2018-04-27T01:00:51.107Z,100.0
2018-04-27T01:01:52.739Z,100.0
2018-04-27T01:02:54.364Z,100.0
2018-04-27T01:03:56.006Z,100.0
2018-04-27T01:04:57.623Z,100.0
2018-04-27T01:05:59.254Z,100.0
2018-04-27T01:07:00.890Z,100.0
2018-04-27T01:08:02.505Z,100.0
2018-04-27T01:09:04.150Z,100.0
2018-04-27T01:10:05.776Z,100.0
2018-04-27T01:11:07.421Z,100.0
2018-04-27T01:12:09.035Z,100.0
2018-04-27T01:13:10.660Z,100.0
2018-04-27T01:14:12.296Z,100.0
2018-04-27T01:15:13.920Z,100.0
2018-04-27T01:16:15.548Z,100.0
2018-04-27T01:17:17.177Z,100.0
2018-04-27T01:18:18.811Z,100.0
2018-04-27T01:19:20.436Z,100.0
2018-04-27T01:20:22.080Z,100.0
2018-04-27T01:21:23.699Z,100.0
2018-04-27T01:22:25.337Z,100.0
2018-04-27T01:23:26.957Z,100.0
2018-04-27T01:24:28.576Z,100.0
2018-04-27T01:25:30.212Z,100.0
2018-04-27T01:26:31.831Z,100.0
2018-04-27T01:27:33.471Z,100.0
2018-04-27T01:28:35.104Z,100.0
2018-04-27T01:29:36.728Z,100.0
2018-04-27T01:30:38.351Z,100.0
2018-04-27T01:31:39.988Z,100.0
2018-04-27T01:32:41.616Z,100.0
2018-04-27T01:33:43.249Z,100.0
2018-04-27T01:34:44.889Z,100.0
2018-04-27T01:35:46.511Z,100.0
2018-04-27T01:36:48.136Z,100.0
2018-04-27T01:37:49.760Z,100.0
2018-04-27T01:38:51.379Z,100.0
2018-04-27T01:39:53.019Z,100.0
2018-04-27T01:40:54.647Z,100.0
2018-04-27T01:41:56.282Z,100.0
2018-04-27T01:42:57.921Z,100.0
2018-04-27T01:43:59.536Z,100.0
2018-04-27T01:45:01.163Z,100.0
2018-04-27T01:46:02.800Z,100.0
2018-04-27T01:47:04.432Z,100.0
2018-04-27T01:48:06.051Z,100.0
2018-04-27T01:49:07.682Z,100.0
2018-04-27T01:50:09.309Z,100.0
2018-04-27T01:51:10.926Z,100.0
2018-04-27T01:52:12.566Z,100.0
2018-04-27T01:53:14.190Z,100.0
2018-04-27T01:54:15.810Z,100.0
2018-04-27T01:55:17.458Z,100.0
2018-04-27T01:56:19.083Z,100.0
2018-04-27T01:57:20.712Z,100.0
2018-04-27T01:58:22.337Z,100.0
2018-04-27T01:59:23.967Z,100.0
2018-04-27T02:00:25.594Z,100.0
2018-04-27T02:01:27.228Z,100.0
2018-04-27T02:02:28.852Z,100.0
2018-04-27T02:03:30.487Z,100.0
2018-04-27T02:04:32.114Z,100.0
2018-04-27T02:05:33.741Z,100.0
2018-04-27T02:06:35.372Z,100.0
2018-04-27T02:07:36.998Z,100.0
2018-04-27T02:08:38.633Z,100.0
2018-04-27T02:09:40.248Z,100.0
2018-04-27T02:10:41.870Z,100.0
2018-04-27T02:11:43.481Z,100.0
2018-04-27T02:12:45.087Z,100.0
2018-04-27T02:13:46.694Z,100.0
2018-04-27T02:14:48.304Z,100.0
2018-04-27T02:15:49.911Z,100.0
2018-04-27T02:16:51.521Z,100.0
2018-04-27T02:17:53.200Z,100.0
2018-04-27T02:18:54.743Z,100.0
2018-04-27T02:19:56.353Z,100.0
2018-04-27T02:20:57.956Z,100.0
2018-04-27T02:21:59.567Z,100.0
2018-04-27T02:23:01.174Z,100.0
2018-04-27T02:24:02.782Z,100.0
2018-04-27T02:25:04.397Z,100.0
2018-04-27T02:26:06.010Z,100.0
2018-04-27T02:27:07.611Z,100.0
2018-04-27T02:28:09.221Z,100.0
2018-04-27T02:29:10.834Z,100.0
2018-04-27T02:30:12.436Z,100.0
2018-04-27T02:31:14.048Z,100.0
2018-04-27T02:32:15.664Z,100.0
2018-04-27T02:33:17.265Z,100.0
2018-04-27T02:34:18.873Z,100.0
2018-04-27T02:35:20.479Z,100.0
2018-04-27T02:36:22.083Z,100.0
2018-04-27T02:37:23.699Z,100.0
2018-04-27T02:38:25.303Z,100.0
2018-04-27T02:39:26.916Z,100.0
2018-04-27T02:40:28.533Z,100.0
2018-04-27T02:41:30.134Z,100.0
2018-04-27T02:42:31.745Z,100.0
2018-04-27T02:43:33.351Z,100.0
2018-04-27T02:44:34.971Z,100.0
2018-04-27T02:45:36.567Z,100.0
2018-04-27T02:46:38.183Z,100.0
2018-04-27T02:47:39.789Z,100.0
2018-04-27T02:48:41.394Z,100.0
2018-04-27T02:49:43.004Z,100.0
2018-04-27T02:50:44.609Z,100.0
2018-04-27T02:51:46.220Z,100.0
2018-04-27T02:52:47.834Z,100.0
2018-04-27T02:53:49.440Z,100.0
2018-04-27T02:54:51.052Z,100.0
2018-04-27T02:55:52.655Z,100.0
2018-04-27T02:56:54.261Z,100.0
2018-04-27T02:57:55.871Z,100.0
2018-04-27T02:58:57.478Z,100.0
2018-04-27T02:59:59.096Z,100.0
2018-04-27T03:01:00.707Z,100.0
2018-04-27T03:02:02.336Z,100.0
2018-04-27T03:03:03.934Z,100.0
2018-04-27T03:04:05.541Z,100.0
2018-04-27T03:05:07.156Z,100.0
2018-04-27T03:06:08.759Z,100.0
2018-04-27T03:07:10.374Z,100.0
2018-04-27T03:08:11.979Z,100.0
2018-04-27T03:09:13.595Z,100.0
2018-04-27T03:10:15.197Z,100.0
2018-04-27T03:11:16.805Z,100.0
2018-04-27T03:12:18.415Z,100.0
2018-04-27T03:13:20.022Z,100.0
2018-04-27T03:14:21.631Z,100.0
2018-04-27T03:15:23.237Z,100.0
2018-04-27T03:16:24.846Z,100.0
2018-04-27T03:17:26.455Z,100.0
2018-04-27T03:18:28.068Z,100.0
2018-04-27T03:19:29.680Z,100.0
2018-04-27T03:20:31.284Z,100.0
2018-04-27T03:21:32.897Z,100.0
2018-04-27T03:22:34.504Z,100.0
2018-04-27T03:23:36.113Z,100.0
2018-04-27T03:24:37.723Z,100.0
2018-04-27T03:25:39.333Z,100.0
2018-04-27T03:26:40.937Z,100.0
2018-04-27T03:27:42.551Z,100.0
2018-04-27T03:28:44.159Z,100.0
2018-04-27T03:29:45.762Z,100.0
2018-04-27T03:30:47.376Z,100.0
2018-04-27T03:31:48.984Z,100.0
2018-04-27T03:32:50.592Z,100.0
2018-04-27T03:33:52.202Z,100.0
2018-04-27T03:34:53.806Z,100.0
2018-04-27T03:35:55.417Z,100.0
2018-04-27T03:36:57.030Z,100.0
2018-04-27T03:37:58.636Z,100.0
2018-04-27T03:39:00.240Z,100.0
2018-04-27T03:40:01.852Z,100.0
2018-04-27T03:41:03.458Z,100.0
2018-04-27T03:42:05.066Z,100.0
2018-04-27T03:43:06.671Z,100.0
2018-04-27T03:44:08.279Z,100.0
2018-04-27T03:45:09.893Z,100.0
2018-04-27T03:46:11.498Z,100.0
2018-04-27T03:47:13.111Z,100.0
2018-04-27T03:48:14.711Z,100.0
2018-04-27T03:49:16.317Z,100.0
2018-04-27T03:50:17.926Z,100.0
2018-04-27T03:51:19.539Z,100.0
2018-04-27T03:52:21.150Z,100.0
2018-04-27T03:53:22.757Z,100.0
2018-04-27T03:54:24.369Z,100.0
2018-04-27T03:55:25.981Z,100.0
2018-04-27T03:56:27.585Z,100.0
2018-04-27T03:57:29.199Z,100.0
2018-04-27T03:58:30.808Z,100.0
2018-04-27T03:59:32.425Z,100.0
2018-04-27T04:00:34.037Z,100.0
2018-04-27T04:01:35.642Z,100.0
2018-04-27T04:02:37.254Z,100.0
2018-04-27T04:03:38.858Z,100.0
2018-04-27T04:04:40.472Z,100.0
2018-04-27T04:05:42.081Z,100.0
2018-04-27T04:06:43.696Z,100.0
2018-04-27T04:07:45.311Z,100.0
2018-04-27T04:08:46.923Z,100.0
2018-04-27T04:09:48.531Z,100.0
2018-04-27T04:10:50.145Z,100.0
2018-04-27T04:11:51.755Z,100.0
2018-04-27T04:12:53.367Z,100.0
2018-04-27T04:13:54.980Z,100.0
2018-04-27T04:14:56.591Z,100.0
2018-04-27T04:15:58.196Z,100.0
2018-04-27T04:16:59.816Z,100.0
2018-04-27T04:18:01.420Z,100.0
2018-04-27T04:19:03.029Z,100.0
2018-04-27T04:20:04.647Z,100.0
2018-04-27T04:21:06.263Z,100.0
2018-04-27T04:22:07.875Z,100.0
2018-04-27T04:23:09.487Z,100.0
2018-04-27T04:24:11.090Z,100.0
2018-04-27T04:25:12.699Z,100.0
2018-04-27T04:26:14.316Z,100.0
2018-04-27T04:27:15.924Z,100.0
2018-04-27T04:28:17.541Z,100.0
2018-04-27T04:29:19.153Z,100.0
2018-04-27T04:30:20.760Z,100.0
2018-04-27T04:31:22.368Z,100.0
2018-04-27T04:32:23.999Z,100.0
2018-04-27T04:33:25.592Z,100.0
2018-04-27T04:34:27.210Z,100.0
2018-04-27T04:35:28.994Z,100.0
2018-04-27T04:36:30.608Z,100.0
2018-04-27T04:37:32.222Z,100.0
2018-04-27T04:38:33.838Z,100.0
2018-04-27T04:39:35.447Z,100.0
2018-04-27T04:40:37.067Z,100.0
2018-04-27T04:41:38.676Z,100.0
2018-04-27T04:42:40.294Z,100.0
2018-04-27T04:43:41.908Z,100.0
2018-04-27T04:44:43.519Z,100.0
2018-04-27T04:45:45.132Z,100.0
2018-04-27T04:46:46.742Z,100.0
2018-04-27T04:47:48.357Z,100.0
2018-04-27T04:48:49.969Z,100.0
2018-04-27T04:49:51.583Z,100.0
2018-04-27T04:50:53.195Z,100.0
2018-04-27T04:51:54.804Z,100.0
2018-04-27T04:52:56.424Z,100.0
2018-04-27T04:53:58.040Z,100.0
2018-04-27T04:54:59.655Z,100.0
2018-04-27T04:56:01.275Z,100.0
2018-04-27T04:57:02.921Z,100.0
2018-04-27T04:58:04.523Z,100.0
2018-04-27T04:59:06.141Z,100.0
2018-04-27T05:00:07.749Z,100.0
2018-04-27T05:01:09.360Z,100.0
2018-04-27T05:02:10.973Z,100.0
2018-04-27T05:03:12.591Z,100.0
2018-04-27T05:04:14.204Z,100.0
2018-04-27T05:05:15.822Z,100.0
2018-04-27T05:06:17.438Z,100.0
2018-04-27T05:07:19.050Z,100.0
2018-04-27T05:08:20.747Z,100.0
2018-04-27T05:09:22.276Z,100.0
2018-04-27T05:10:23.893Z,100.0
2018-04-27T05:11:25.511Z,100.0
2018-04-27T05:12:27.125Z,100.0
2018-04-27T05:13:28.739Z,100.0
2018-04-27T05:14:30.354Z,100.0
2018-04-27T05:15:31.971Z,100.0
2018-04-27T05:16:33.588Z,100.0
2018-04-27T05:17:35.198Z,100.0
2018-04-27T05:18:36.813Z,100.0
2018-04-27T05:19:38.432Z,100.0
2018-04-27T05:20:40.046Z,100.0
2018-04-27T05:21:41.655Z,100.0
2018-04-27T05:22:43.271Z,100.0
2018-04-27T05:23:44.880Z,100.0
2018-04-27T05:24:46.494Z,100.0
2018-04-27T05:25:48.112Z,100.0
2018-04-27T05:26:49.723Z,100.0
2018-04-27T05:27:51.336Z,100.0
2018-04-27T05:28:52.953Z,100.0
2018-04-27T05:29:54.563Z,100.0
2018-04-27T05:30:56.178Z,100.0
2018-04-27T05:31:57.792Z,100.0
2018-04-27T05:32:59.404Z,99.9
2018-04-27T05:34:01.016Z,100.0
2018-04-27T05:35:02.633Z,99.9
2018-04-27T05:36:04.243Z,99.3
2018-04-27T05:37:05.856Z,99.5
2018-04-27T05:38:07.472Z,99.6
2018-04-27T05:39:09.090Z,98.7
2018-04-27T05:40:10.706Z,99.3
2018-04-27T05:41:12.318Z,98.4
2018-04-27T05:42:13.928Z,98.4
2018-04-27T05:43:15.546Z,98.2
2018-04-27T05:44:17.165Z,98.4
2018-04-27T05:45:18.777Z,98.1
2018-04-27T05:46:20.391Z,98.2
2018-04-27T05:47:22.010Z,97.9
2018-04-27T05:48:23.663Z,96.8
2018-04-27T05:49:25.236Z,96.8
2018-04-27T05:50:26.840Z,96.1
2018-04-27T05:51:28.460Z,96.7
2018-04-27T05:52:30.070Z,96.9
2018-04-27T05:53:31.690Z,96.8
2018-04-27T05:54:33.300Z,96.3
2018-04-27T05:55:34.980Z,96.0
2018-04-27T05:56:36.528Z,96.2
2018-04-27T05:57:38.138Z,95.3
2018-04-27T05:58:39.757Z,94.9
2018-04-27T05:59:41.371Z,95.2
2018-04-27T06:00:42.985Z,94.7
2018-04-27T06:01:44.607Z,94.6
2018-04-27T06:02:46.216Z,94.1
2018-04-27T06:03:47.832Z,93.6
2018-04-27T06:04:49.447Z,93.5
2018-04-27T06:05:51.062Z,93.8
2018-04-27T06:06:52.673Z,94.2
2018-04-27T06:07:54.290Z,93.8
2018-04-27T06:08:55.916Z,94.1
2018-04-27T06:09:57.527Z,93.7
2018-04-27T06:10:59.139Z,92.6
2018-04-27T06:12:00.761Z,92.6
2018-04-27T06:13:02.385Z,92.1
2018-04-27T06:14:03.997Z,92.0
2018-04-27T06:15:05.616Z,92.8
2018-04-27T06:16:07.297Z,91.8
2018-04-27T06:17:08.845Z,91.7
2018-04-27T06:18:10.460Z,90.6
2018-04-27T06:19:12.079Z,89.4
2018-04-27T06:20:13.693Z,88.0
2018-04-27T06:21:15.320Z,86.8
2018-04-27T06:22:16.933Z,85.8
2018-04-27T06:23:18.549Z,85.2
2018-04-27T06:24:20.169Z,84.1
2018-04-27T06:25:21.781Z,81.9
2018-04-27T06:26:23.398Z,78.8
2018-04-27T06:27:25.019Z,76.4
2018-04-27T06:28:26.638Z,74.3
2018-04-27T06:29:28.256Z,73.7
2018-04-27T06:30:29.876Z,73.8
2018-04-27T06:31:31.495Z,73.3
2018-04-27T06:32:33.111Z,72.3
2018-04-27T06:33:34.734Z,69.8
2018-04-27T06:34:36.358Z,67.8
2018-04-27T06:35:37.975Z,65.9
2018-04-27T06:36:39.598Z,64.5
2018-04-27T06:37:41.217Z,63.5
2018-04-27T06:38:42.834Z,62.3
2018-04-27T06:39:44.459Z,61.2
2018-04-27T06:40:46.076Z,60.7
2018-04-27T06:41:47.703Z,61.3
2018-04-27T06:42:49.326Z,61.2
2018-04-27T06:43:50.949Z,59.9
2018-04-27T06:44:52.615Z,58.2
2018-04-27T06:45:54.195Z,56.3
2018-04-27T06:46:55.817Z,56.2
2018-04-27T06:47:57.446Z,55.7
2018-04-27T06:48:59.060Z,54.6
2018-04-27T06:50:00.684Z,54.3
2018-04-27T06:51:02.312Z,55.5
2018-04-27T06:52:03.934Z,55.5
2018-04-27T06:53:05.563Z,55.6
2018-04-27T06:54:07.182Z,54.4
2018-04-27T06:55:08.805Z,53.2
2018-04-27T06:56:10.430Z,51.3
2018-04-27T06:57:12.058Z,49.7
2018-04-27T06:58:13.680Z,49.2
2018-04-27T06:59:15.412Z,49.4
2018-04-27T07:00:16.931Z,49.7
2018-04-27T07:01:18.554Z,50.9
2018-04-27T07:02:20.180Z,49.5
2018-04-27T07:03:21.807Z,49.6
2018-04-27T07:04:23.434Z,49.8
2018-04-27T07:05:25.095Z,49.5
2018-04-27T07:06:26.693Z,49.8
2018-04-27T07:07:28.315Z,49.1
2018-04-27T07:08:29.943Z,49.5
2018-04-27T07:09:31.564Z,49.7
2018-04-27T07:10:33.196Z,48.4
2018-04-27T07:11:34.897Z,48.1
2018-04-27T07:12:36.455Z,46.2
2018-04-27T07:13:38.079Z,47.4
2018-04-27T07:14:39.709Z,47.0
2018-04-27T07:15:41.336Z,46.1
2018-04-27T07:16:42.959Z,44.3
2018-04-27T07:17:44.593Z,44.8
2018-04-27T07:18:46.217Z,43.4
2018-04-27T07:19:47.844Z,43.1
2018-04-27T07:20:49.477Z,43.9
2018-04-27T07:21:51.107Z,43.2
2018-04-27T07:22:52.732Z,42.6
2018-04-27T07:23:54.364Z,42.2
2018-04-27T07:24:55.991Z,40.7
2018-04-27T07:25:57.693Z,41.1
2018-04-27T07:26:59.298Z,39.9
2018-04-27T07:28:00.884Z,40.4
2018-04-27T07:29:02.522Z,40.1
2018-04-27T07:30:04.162Z,41.4
2018-04-27T07:31:05.787Z,39.7
2018-04-27T07:32:07.413Z,39.3
2018-04-27T07:33:09.047Z,40.6
2018-04-27T07:34:10.750Z,41.3
2018-04-27T07:35:12.310Z,41.4
2018-04-27T07:36:13.940Z,42.4
2018-04-27T07:37:15.566Z,41.4
2018-04-27T07:38:17.204Z,40.1
2018-04-27T07:39:18.831Z,41.8
2018-04-27T07:40:20.461Z,44.3
2018-04-27T07:41:22.096Z,43.4
2018-04-27T07:42:23.724Z,41.8
2018-04-27T07:43:25.356Z,43.0
2018-04-27T07:44:26.989Z,44.4
2018-04-27T07:45:28.614Z,44.3
2018-04-27T07:46:30.246Z,42.8
2018-04-27T07:47:31.879Z,43.3
2018-04-27T07:48:33.512Z,43.1
2018-04-27T07:49:35.140Z,42.8
2018-04-27T07:50:36.773Z,44.9
2018-04-27T07:51:38.400Z,45.7
2018-04-27T07:52:40.027Z,45.2
2018-04-27T07:53:41.661Z,45.0
2018-04-27T07:54:43.286Z,44.3
2018-04-27T07:55:44.922Z,45.0
2018-04-27T07:56:46.554Z,46.2
2018-04-27T07:57:48.180Z,46.2
2018-04-27T07:58:49.810Z,45.0
2018-04-27T07:59:51.437Z,44.3
2018-04-27T08:00:53.064Z,42.2
2018-04-27T08:01:54.702Z,43.6
2018-04-27T08:02:56.325Z,43.6
2018-04-27T08:03:57.960Z,44.9
2018-04-27T08:04:59.589Z,45.1
2018-04-27T08:06:01.218Z,44.4
2018-04-27T08:07:02.843Z,43.2
2018-04-27T08:08:04.468Z,43.7
2018-04-27T08:09:06.098Z,44.6
2018-04-27T08:10:07.727Z,45.7
2018-04-27T08:11:09.359Z,45.8
2018-04-27T08:12:10.986Z,45.8
2018-04-27T08:13:12.612Z,45.4
2018-04-27T08:14:14.245Z,46.0
2018-04-27T08:15:15.869Z,47.3
2018-04-27T08:16:17.501Z,47.6
2018-04-27T08:17:19.130Z,47.5
2018-04-27T08:18:20.756Z,47.2
2018-04-27T08:19:22.381Z,47.8
2018-04-27T08:20:24.008Z,47.9
2018-04-27T08:21:25.638Z,48.1
2018-04-27T08:22:27.262Z,48.6
2018-04-27T08:23:28.893Z,46.4
2018-04-27T08:24:30.528Z,45.9
2018-04-27T08:25:32.147Z,45.7
2018-04-27T08:26:33.772Z,45.3
2018-04-27T08:27:35.406Z,45.8
2018-04-27T08:28:37.028Z,43.7
2018-04-27T08:29:38.661Z,43.7
2018-04-27T08:30:40.285Z,43.0
2018-04-27T08:31:41.917Z,43.3
2018-04-27T08:32:43.550Z,42.7
2018-04-27T08:33:45.173Z,43.1
2018-04-27T08:34:46.804Z,43.2
2018-04-27T08:35:48.430Z,43.3
2018-04-27T08:36:50.061Z,44.2
2018-04-27T08:37:51.688Z,43.6
2018-04-27T08:38:53.317Z,45.0
2018-04-27T08:39:54.950Z,45.0
2018-04-27T08:40:56.575Z,44.2
2018-04-27T08:41:58.201Z,45.2
2018-04-27T08:42:59.834Z,44.2
2018-04-27T08:44:01.459Z,44.0
2018-04-27T08:45:03.096Z,43.6
2018-04-27T08:46:04.722Z,44.2
2018-04-27T08:47:06.361Z,43.0
2018-04-27T08:48:07.991Z,42.1
2018-04-27T08:49:09.615Z,41.1
2018-04-27T08:50:11.250Z,40.7
2018-04-27T08:51:12.878Z,40.8
2018-04-27T08:52:14.507Z,40.7
2018-04-27T08:53:16.139Z,40.5
2018-04-27T08:54:17.775Z,40.8
2018-04-27T08:55:19.404Z,41.8
2018-04-27T08:56:21.031Z,42.3
2018-04-27T08:57:22.658Z,42.4
2018-04-27T08:58:24.292Z,42.3
2018-04-27T08:59:25.919Z,42.4
2018-04-27T09:00:27.555Z,42.8
2018-04-27T09:01:29.185Z,43.0
2018-04-27T09:02:30.814Z,43.0
2018-04-27T09:03:32.442Z,43.1
2018-04-27T09:04:34.073Z,43.3
2018-04-27T09:05:35.700Z,42.3
2018-04-27T09:06:37.336Z,42.3
2018-04-27T09:07:38.967Z,42.3
2018-04-27T09:08:40.600Z,42.7
2018-04-27T09:09:42.226Z,44.3
2018-04-27T09:10:43.863Z,42.9
2018-04-27T09:11:45.493Z,43.1
2018-04-27T09:12:47.161Z,41.8
2018-04-27T09:13:48.753Z,42.4
2018-04-27T09:14:50.387Z,43.3
2018-04-27T09:15:52.015Z,43.5
2018-04-27T09:16:53.642Z,41.7
2018-04-27T09:17:55.269Z,41.4
2018-04-27T09:18:56.895Z,41.0
2018-04-27T09:19:58.530Z,42.4
2018-04-27T09:21:00.156Z,41.6
2018-04-27T09:22:01.792Z,42.6
2018-04-27T09:23:03.425Z,43.2
2018-04-27T09:24:05.050Z,42.8
2018-04-27T09:25:06.677Z,43.2
2018-04-27T09:26:08.309Z,43.6
2018-04-27T09:27:09.935Z,42.8
2018-04-27T09:28:11.566Z,43.0
2018-04-27T09:29:13.191Z,44.5
2018-04-27T09:30:14.823Z,44.1
2018-04-27T09:31:16.454Z,43.3
2018-04-27T09:32:18.125Z,42.9
2018-04-27T09:33:19.716Z,42.5
2018-04-27T09:34:21.340Z,42.1
2018-04-27T09:35:22.978Z,42.8
2018-04-27T09:36:24.604Z,42.0
2018-04-27T09:37:26.232Z,43.3
2018-04-27T09:38:27.862Z,42.9
2018-04-27T09:39:29.487Z,43.1
2018-04-27T09:40:31.119Z,42.2
2018-04-27T09:41:32.745Z,43.2
2018-04-27T09:42:34.381Z,43.0
2018-04-27T09:43:36.013Z,43.2
2018-04-27T09:44:37.644Z,43.2
2018-04-27T09:45:39.273Z,44.1
2018-04-27T09:46:40.899Z,43.5
2018-04-27T09:47:42.531Z,43.4
2018-04-27T09:48:44.156Z,43.7
2018-04-27T09:49:45.783Z,43.6
2018-04-27T09:50:47.475Z,43.3
2018-04-27T09:51:49.047Z,42.1
2018-04-27T09:52:50.675Z,42.9
2018-04-27T09:53:52.307Z,43.1
2018-04-27T09:54:53.931Z,43.3
2018-04-27T09:55:55.564Z,43.2
2018-04-27T09:56:57.190Z,43.2
2018-04-27T09:57:58.825Z,43.1
2018-04-27T09:59:00.453Z,43.1
2018-04-27T10:00:02.079Z,43.2
2018-04-27T10:01:03.705Z,42.9
2018-04-27T10:02:05.336Z,42.6
2018-04-27T10:03:06.968Z,43.1
2018-04-27T10:04:08.594Z,42.6
2018-04-27T10:05:10.230Z,42.2
2018-04-27T10:06:11.862Z,42.7
2018-04-27T10:07:13.490Z,41.7
2018-04-27T10:08:15.114Z,42.0
2018-04-27T10:09:16.746Z,41.8
2018-04-27T10:10:18.371Z,41.4
2018-04-27T10:11:20.020Z,40.8
2018-04-27T10:12:21.657Z,40.8
2018-04-27T10:13:23.281Z,41.5
2018-04-27T10:14:24.912Z,42.1
2018-04-27T10:15:26.538Z,41.7
2018-04-27T10:16:28.171Z,41.5
2018-04-27T10:17:29.796Z,41.6
2018-04-27T10:18:31.427Z,41.1
2018-04-27T10:19:33.061Z,41.5
2018-04-27T10:20:34.761Z,42.3
2018-04-27T10:21:36.321Z,42.3
2018-04-27T10:22:37.946Z,41.6
2018-04-27T10:23:39.588Z,41.7
2018-04-27T10:24:41.210Z,41.9
2018-04-27T10:25:42.838Z,40.8
2018-04-27T10:26:44.478Z,41.9
2018-04-27T10:27:46.105Z,39.5
2018-04-27T10:28:47.734Z,40.0
2018-04-27T10:29:49.370Z,40.1
2018-04-27T10:30:51.001Z,39.2
2018-04-27T10:31:52.626Z,39.2
2018-04-27T10:32:54.259Z,39.2
2018-04-27T10:33:55.895Z,39.5
2018-04-27T10:34:57.523Z,39.8
2018-04-27T10:35:59.158Z,39.9
2018-04-27T10:37:00.790Z,40.0
2018-04-27T10:38:02.417Z,39.2
2018-04-27T10:39:04.051Z,39.3
2018-04-27T10:40:05.678Z,39.0
2018-04-27T10:41:07.314Z,38.5
2018-04-27T10:42:08.947Z,37.7
2018-04-27T10:43:10.574Z,35.9
2018-04-27T10:44:12.207Z,36.8
2018-04-27T10:45:13.835Z,37.4
2018-04-27T10:46:15.480Z,36.5
2018-04-27T10:47:17.096Z,36.5
2018-04-27T10:48:18.749Z,35.7
2018-04-27T10:49:20.387Z,36.3
2018-04-27T10:50:22.025Z,35.1
2018-04-27T10:51:24.029Z,34.5
2018-04-27T10:52:25.658Z,35.1
2018-04-27T10:53:27.291Z,35.6
2018-04-27T10:54:28.919Z,36.4
2018-04-27T10:55:30.550Z,36.1
2018-04-27T10:56:32.187Z,35.8
2018-04-27T10:57:33.822Z,35.5
2018-04-27T10:58:35.446Z,34.7
2018-04-27T10:59:37.082Z,34.4
2018-04-27T11:00:38.707Z,34.3
2018-04-27T11:01:40.341Z,35.9
2018-04-27T11:02:41.979Z,35.7
2018-04-27T11:03:43.606Z,35.2
2018-04-27T11:04:45.241Z,34.9
2018-04-27T11:05:46.878Z,34.8
2018-04-27T11:06:48.496Z,34.9
2018-04-27T11:07:50.126Z,34.9
2018-04-27T11:08:51.931Z,36.2
2018-04-27T11:09:53.529Z,34.9
2018-04-27T11:10:55.203Z,35.0
2018-04-27T11:11:56.834Z,34.4
2018-04-27T11:12:58.462Z,35.2
2018-04-27T11:14:00.095Z,36.8
2018-04-27T11:15:01.730Z,34.0
2018-04-27T11:16:03.359Z,34.5
2018-04-27T11:17:05.011Z,34.7
2018-04-27T11:18:06.637Z,33.9
2018-04-27T11:19:08.264Z,33.4
2018-04-27T11:20:09.922Z,34.2
2018-04-27T11:21:11.549Z,34.0
2018-04-27T11:22:13.183Z,34.5
2018-04-27T11:23:14.824Z,34.8
2018-04-27T11:24:16.456Z,35.1
2018-04-27T11:25:18.087Z,35.3
2018-04-27T11:26:19.720Z,34.6
2018-04-27T11:27:21.348Z,34.7
2018-04-27T11:28:22.975Z,35.4
2018-04-27T11:29:24.609Z,34.5
2018-04-27T11:30:26.243Z,35.0
2018-04-27T11:31:27.872Z,34.6
2018-04-27T11:32:29.512Z,33.8
2018-04-27T11:33:31.137Z,33.4
2018-04-27T11:34:32.767Z,33.7
2018-04-27T11:35:34.404Z,33.2
2018-04-27T11:36:36.039Z,31.8
2018-04-27T11:37:37.677Z,32.3
2018-04-27T11:38:39.312Z,32.1
2018-04-27T11:39:40.938Z,32.1
2018-04-27T11:40:42.574Z,32.2
2018-04-27T11:41:44.202Z,33.0
2018-04-27T11:42:45.830Z,33.6
2018-04-27T11:43:47.469Z,34.7
2018-04-27T11:44:49.106Z,34.5
2018-04-27T11:45:50.737Z,33.6
2018-04-27T11:46:52.374Z,33.8
2018-04-27T11:47:54.007Z,33.7
2018-04-27T11:48:55.634Z,32.7
2018-04-27T11:49:57.268Z,33.3
2018-04-27T11:50:58.898Z,32.2
2018-04-27T11:52:00.535Z,31.7
2018-04-27T11:53:02.173Z,33.2
2018-04-27T11:54:03.903Z,31.3
2018-04-27T11:55:05.538Z,30.7
2018-04-27T11:56:07.175Z,30.8
2018-04-27T11:57:08.809Z,30.3
2018-04-27T11:58:10.446Z,30.1
2018-04-27T11:59:12.084Z,30.0
2018-04-27T12:00:13.717Z,29.4
2018-04-27T12:01:15.355Z,29.6
2018-04-27T12:02:16.998Z,29.1
2018-04-27T12:03:18.640Z,29.2
2018-04-27T12:04:20.270Z,29.8
2018-04-27T12:05:21.912Z,28.8
2018-04-27T12:06:23.544Z,28.9
2018-04-27T12:07:25.182Z,29.5
2018-04-27T12:08:26.828Z,28.4
2018-04-27T12:09:28.456Z,28.3
2018-04-27T12:10:30.098Z,29.5
2018-04-27T12:11:31.843Z,28.7
2018-04-27T12:12:33.493Z,28.3
2018-04-27T12:13:35.607Z,27.0
2018-04-27T12:14:37.259Z,27.1
2018-04-27T12:15:39.988Z,28.7
2018-04-27T12:16:43.655Z,28.1
2018-04-27T12:17:46.161Z,27.8
2018-04-27T12:18:48.001Z,28.9
2018-04-27T12:19:49.785Z,28.0
2018-04-27T12:20:51.568Z,28.6
2018-04-27T12:21:53.246Z,29.8
2018-04-27T12:22:55.378Z,29.5
2018-04-27T12:23:56.948Z,28.3
2018-04-27T12:24:58.589Z,29.0
2018-04-27T12:26:00.220Z,29.5
2018-04-27T12:27:01.897Z,29.3
2018-04-27T12:28:03.535Z,29.5
2018-04-27T12:29:05.409Z,29.1
2018-04-27T12:30:07.040Z,29.3
2018-04-27T12:31:08.675Z,30.7
2018-04-27T12:32:10.308Z,31.1
2018-04-27T12:33:11.939Z,31.7
2018-04-27T12:34:13.572Z,32.1
2018-04-27T12:35:15.211Z,31.4
2018-04-27T12:36:16.843Z,31.3
2018-04-27T12:37:18.480Z,31.2
2018-04-27T12:38:20.124Z,31.7
2018-04-27T12:39:21.752Z,30.6
2018-04-27T12:40:23.391Z,30.9
2018-04-27T12:41:25.019Z,31.1
2018-04-27T12:42:26.659Z,30.7
2018-04-27T12:43:28.288Z,30.5
2018-04-27T12:44:29.926Z,31.0
2018-04-27T12:45:31.555Z,32.4
2018-04-27T12:46:33.191Z,32.4
2018-04-27T12:47:34.823Z,31.7
2018-04-27T12:48:36.457Z,32.2
2018-04-27T12:49:38.098Z,32.3
2018-04-27T12:50:39.759Z,32.2
2018-04-27T12:51:41.394Z,32.0
2018-04-27T12:52:43.026Z,32.8
2018-04-27T12:53:44.655Z,32.6
2018-04-27T12:54:46.292Z,33.2
2018-04-27T12:55:47.920Z,32.2
2018-04-27T12:56:49.549Z,32.5
2018-04-27T12:57:51.185Z,31.2
2018-04-27T12:58:52.825Z,31.1
2018-04-27T12:59:54.451Z,30.6
2018-04-27T13:00:56.092Z,31.8
2018-04-27T13:01:57.719Z,32.2
2018-04-27T13:02:59.355Z,31.2
2018-04-27T13:04:00.993Z,31.3
2018-04-27T13:05:02.626Z,31.3
2018-04-27T13:06:04.256Z,29.2
2018-04-27T13:07:05.891Z,30.1
2018-04-27T13:08:07.523Z,30.8
2018-04-27T13:09:09.150Z,29.7
2018-04-27T13:10:10.793Z,29.9
2018-04-27T13:11:12.427Z,30.2
2018-04-27T13:12:14.064Z,30.8
2018-04-27T13:13:15.718Z,29.1
2018-04-27T13:14:17.350Z,29.0
2018-04-27T13:15:18.980Z,29.2
2018-04-27T13:16:20.636Z,27.1
2018-04-27T13:17:22.266Z,27.4
2018-04-27T13:18:23.902Z,28.0
2018-04-27T13:19:25.559Z,27.8
2018-04-27T13:20:27.177Z,26.0
2018-04-27T13:21:28.807Z,26.6
2018-04-27T13:22:30.444Z,27.5
2018-04-27T13:23:32.084Z,28.4
2018-04-27T13:24:33.712Z,28.9
2018-04-27T13:25:35.351Z,30.0
2018-04-27T13:26:37.066Z,29.5
2018-04-27T13:27:38.618Z,29.4
2018-04-27T13:28:40.252Z,29.7